KHCO Airport (Hallock Muni) Information

FAA: HCO - ICAO: KHCO

KHCO Airport Location

State Minnesota
County Kittson
City Hallock
KHCO Airport is 1 miles south of Hallock, MN.
Latitude 48-45-09.8330N
Longitude 096-56-34.8110W
Elevation 820ft

KHCO Airport METARs

METAR KHCO 302135Z AUTO 08007KT 10SM CLR 23/08 A3004 RMK AO2
Altimeter 30.04"
Temperature 23.0°C (73.4°F)
Wind 80° at 7KT
Clouds Skies are clear.
Visibility 10.0mi
Time observed: 2022-09-30T21:35:00Z

KHCO Airport Details

Status Operational
Activation N/A
Ownership Public
Usage Public
Chart TWIN CITIES
ATC on-site No
Beacon schedule sunset-sunrise
Beacon color clear green

KHCO Airport Contacts

Owner CITY OF HALLOCK
Owner address PO BOX 336, HALLOCK, MN 56728
Owner phone 218-843-2737
Manager LOREN BAKKO
Manager address 28958 198TH AVE, GLENWOOD, MN 56334
Manager phone 320-808-0471

KHCO Airport (Hallock Muni) Radio Frequencies

KHCO (Airport) Radio Frequencies

UNICOM 122.8
Common traffic advisory frequency (CTAF) 122.8